createdAt,value
2022-09-01T00:00:02.890Z,62.30
2022-09-01T00:02:34.101Z,62.40
2022-09-01T00:05:02.334Z,62.60
2022-09-01T00:07:30.652Z,62.60
2022-09-01T00:09:59.509Z,62.60
2022-09-01T00:12:27.436Z,62.70
2022-09-01T00:14:54.631Z,62.80
2022-09-01T00:17:22.031Z,62.90
2022-09-01T00:19:49.507Z,63.00
2022-09-01T00:22:16.674Z,63.60
2022-09-01T00:24:43.970Z,63.10
2022-09-01T00:27:11.026Z,63.10
2022-09-01T00:29:37.983Z,63.20
2022-09-01T00:32:10.790Z,63.10
2022-09-01T00:34:37.716Z,63.20
2022-09-01T00:37:04.807Z,63.30
2022-09-01T00:39:31.793Z,63.30
2022-09-01T00:41:59.385Z,63.30
2022-09-01T00:44:31.066Z,63.30
2022-09-01T00:46:58.706Z,63.30
2022-09-01T00:49:31.695Z,63.40
2022-09-01T00:52:12.806Z,63.40
2022-09-01T00:54:47.784Z,63.40
2022-09-01T00:57:16.174Z,63.60
2022-09-01T00:59:57.924Z,64.30
2022-09-01T01:02:25.611Z,63.70
2022-09-01T01:04:52.884Z,63.70
2022-09-01T01:07:23.119Z,63.80
2022-09-01T01:09:51.728Z,63.90
2022-09-01T01:12:19.996Z,63.90
2022-09-01T01:14:51.595Z,64.50
2022-09-01T01:17:21.885Z,63.90
2022-09-01T01:20:10.973Z,63.90
2022-09-01T01:23:03.555Z,63.70
2022-09-01T01:25:42.222Z,63.60
2022-09-01T01:28:18.471Z,63.50
2022-09-01T01:30:59.263Z,63.40
2022-09-01T01:33:31.122Z,63.30
2022-09-01T01:36:00.035Z,63.20
2022-09-01T01:38:30.667Z,63.10
2022-09-01T01:40:58.989Z,62.90
2022-09-01T01:43:27.644Z,62.80
2022-09-01T01:45:59.199Z,62.60
2022-09-01T01:48:34.578Z,62.40
2022-09-01T01:51:03.109Z,62.30
2022-09-01T01:53:30.569Z,62.00
2022-09-01T01:55:59.043Z,61.80
2022-09-01T01:58:30.389Z,61.70
2022-09-01T02:00:59.013Z,61.50
2022-09-01T02:03:32.834Z,61.40
2022-09-01T02:06:04.740Z,61.20
2022-09-01T02:08:36.045Z,61.20
2022-09-01T02:11:05.937Z,61.10
2022-09-01T02:13:34.181Z,61.00
2022-09-01T02:16:13.432Z,60.90
2022-09-01T02:18:48.092Z,60.90
2022-09-01T02:21:20.493Z,61.00
2022-09-01T02:24:01.021Z,60.90
2022-09-01T02:26:32.186Z,60.80
2022-09-01T02:29:04.771Z,60.90
2022-09-01T02:31:35.772Z,60.90
2022-09-01T02:34:04.385Z,60.90
2022-09-01T02:36:35.053Z,60.90
2022-09-01T02:39:02.823Z,60.90
2022-09-01T02:41:34.415Z,60.90
2022-09-01T02:44:02.656Z,61.00
2022-09-01T02:46:30.978Z,61.00
2022-09-01T02:49:00.655Z,61.00
2022-09-01T02:51:28.113Z,61.10
2022-09-01T02:53:55.192Z,61.10
2022-09-01T02:56:25.058Z,61.10
2022-09-01T02:58:54.168Z,61.20
2022-09-01T03:01:30.240Z,61.20
2022-09-01T03:04:05.847Z,61.20
2022-09-01T03:06:34.714Z,61.20
2022-09-01T03:09:03.521Z,61.20
2022-09-01T03:11:32.932Z,61.20
2022-09-01T03:14:00.784Z,61.20
2022-09-01T03:16:30.577Z,61.30
2022-09-01T03:18:58.302Z,61.20
2022-09-01T03:21:25.989Z,61.20
2022-09-01T03:23:53.562Z,61.20
2022-09-01T03:26:22.569Z,61.20
2022-09-01T03:28:52.300Z,61.20
2022-09-01T03:31:20.438Z,61.30
2022-09-01T03:33:51.170Z,61.30
2022-09-01T03:36:30.199Z,61.40
2022-09-01T03:38:57.804Z,61.40
2022-09-01T03:41:31.277Z,61.50
2022-09-01T03:43:59.551Z,61.50
2022-09-01T03:46:36.410Z,61.60
2022-09-01T03:49:07.512Z,61.60
2022-09-01T03:51:39.240Z,61.70
2022-09-01T03:54:08.485Z,61.70
2022-09-01T03:56:35.658Z,61.70
2022-09-01T03:59:03.295Z,61.70
2022-09-01T04:01:41.567Z,61.80
2022-09-01T04:04:09.255Z,61.90
2022-09-01T04:06:37.556Z,62.10
2022-09-01T04:09:04.787Z,61.90
2022-09-01T04:11:33.570Z,61.90
2022-09-01T04:14:01.993Z,62.00
2022-09-01T04:16:52.436Z,62.00
2022-09-01T04:19:26.672Z,62.00
2022-09-01T04:22:00.175Z,61.90
2022-09-01T04:24:32.975Z,61.90
2022-09-01T04:27:02.808Z,62.00
2022-09-01T04:29:31.960Z,62.00
2022-09-01T04:32:05.620Z,62.00
2022-09-01T04:34:39.905Z,62.00
2022-09-01T04:37:15.023Z,61.90
2022-09-01T04:39:51.243Z,62.00
2022-09-01T04:42:23.492Z,61.90
2022-09-01T04:44:53.557Z,61.90
2022-09-01T04:47:31.692Z,61.90
2022-09-01T04:50:14.165Z,61.90
2022-09-01T04:52:45.856Z,62.00
2022-09-01T04:55:29.898Z,62.00
2022-09-01T04:58:00.808Z,62.70
2022-09-01T05:00:32.331Z,62.20
2022-09-01T05:03:05.426Z,62.20
2022-09-01T05:05:54.667Z,62.30
2022-09-01T05:08:24.454Z,62.40
2022-09-01T05:10:56.696Z,62.40
2022-09-01T05:13:39.008Z,62.50
2022-09-01T05:16:13.155Z,62.50
2022-09-01T05:18:48.907Z,62.60
2022-09-01T05:21:19.017Z,62.60
2022-09-01T05:23:48.834Z,62.60
2022-09-01T05:26:23.448Z,62.60
2022-09-01T05:28:59.962Z,62.70
2022-09-01T05:31:34.882Z,62.70
2022-09-01T05:34:03.034Z,62.70
2022-09-01T05:36:33.677Z,62.70
2022-09-01T05:39:05.221Z,62.70
2022-09-01T05:41:35.658Z,62.70
2022-09-01T05:44:08.180Z,62.60
2022-09-01T05:46:40.078Z,62.70
2022-09-01T05:49:14.669Z,62.70
2022-09-01T05:51:46.257Z,62.70
2022-09-01T05:54:23.325Z,62.70
2022-09-01T05:56:50.690Z,62.70
2022-09-01T05:59:24.692Z,62.70
2022-09-01T06:01:58.244Z,62.70
2022-09-01T06:04:26.909Z,62.70
2022-09-01T06:07:06.886Z,62.70
2022-09-01T06:09:39.821Z,62.70
2022-09-01T06:12:07.688Z,63.30
2022-09-01T06:14:34.656Z,62.70
2022-09-01T06:17:03.398Z,63.20
2022-09-01T06:19:36.958Z,62.50
2022-09-01T06:22:05.895Z,62.40
2022-09-01T06:24:33.520Z,62.40
2022-09-01T06:27:01.341Z,62.30
2022-09-01T06:29:32.268Z,62.10
2022-09-01T06:32:02.355Z,61.90
2022-09-01T06:34:29.675Z,61.60
2022-09-01T06:36:56.769Z,61.30
2022-09-01T06:39:26.595Z,61.20
2022-09-01T06:41:56.075Z,61.20
2022-09-01T06:44:32.214Z,61.20
2022-09-01T06:47:05.132Z,61.20
2022-09-01T06:49:36.563Z,61.00
2022-09-01T06:52:09.415Z,60.80
2022-09-01T06:54:39.314Z,60.50
2022-09-01T06:59:54.418Z,60.00
2022-09-01T07:02:26.585Z,59.80
2022-09-01T07:08:09.402Z,59.50
2022-09-01T07:14:14.514Z,59.20
2022-09-01T07:16:32.866Z,59.00
2022-09-01T07:19:02.736Z,58.80
2022-09-01T07:21:42.416Z,58.70
2022-09-01T07:24:20.495Z,58.60
2022-09-01T07:27:11.020Z,58.50
2022-09-01T07:29:39.431Z,58.40
2022-09-01T07:34:57.710Z,58.50
2022-09-01T07:43:31.158Z,58.70
2022-09-01T07:52:02.213Z,58.20
2022-09-01T07:54:30.545Z,58.00
2022-09-01T07:56:59.028Z,57.80
2022-09-01T07:59:28.399Z,57.70
2022-09-01T08:02:06.058Z,57.40
2022-09-01T08:04:36.842Z,57.30
2022-09-01T08:07:06.296Z,57.10
2022-09-01T08:09:43.729Z,57.00
2022-09-01T08:12:28.996Z,56.90
2022-09-01T08:17:53.984Z,56.70
2022-09-01T08:20:24.253Z,56.50
2022-09-01T08:22:51.202Z,56.40
2022-09-01T08:25:24.975Z,56.30
2022-09-01T08:28:01.617Z,56.00
2022-09-01T08:30:30.135Z,56.00
2022-09-01T08:32:58.009Z,55.80
2022-09-01T08:35:25.450Z,55.70
2022-09-01T08:37:54.190Z,55.50
2022-09-01T08:40:24.002Z,55.20
2022-09-01T08:43:14.602Z,55.20
2022-09-01T08:45:58.239Z,55.00
2022-09-01T08:49:23.812Z,54.90
2022-09-01T08:51:57.821Z,54.80
2022-09-01T08:54:32.542Z,54.70
2022-09-01T08:57:18.768Z,54.30
2022-09-01T09:00:13.679Z,54.10
2022-09-01T09:03:23.199Z,54.20
2022-09-01T09:06:38.388Z,53.80
2022-09-01T09:09:07.803Z,53.60
2022-09-01T09:12:01.311Z,53.50
2022-09-01T09:14:48.812Z,53.10
2022-09-01T09:17:19.951Z,52.70
2022-09-01T09:19:47.455Z,52.40
2022-09-01T09:22:21.557Z,52.10
2022-09-01T09:25:19.259Z,51.90
2022-09-01T09:27:49.228Z,51.70
2022-09-01T09:30:26.646Z,51.60
2022-09-01T09:33:46.516Z,51.30
2022-09-01T09:35:48.185Z,50.90
2022-09-01T09:38:33.750Z,50.90
2022-09-01T09:41:19.998Z,50.70
2022-09-01T09:44:02.741Z,50.30
2022-09-01T09:46:32.883Z,49.80
2022-09-01T09:49:13.778Z,49.80
2022-09-01T09:51:44.991Z,49.30
2022-09-01T09:54:33.632Z,49.10
2022-09-01T09:57:09.677Z,48.80
2022-09-01T09:59:57.620Z,48.60
2022-09-01T10:02:40.103Z,48.20
2022-09-01T10:05:37.231Z,47.80
2022-09-01T10:08:07.500Z,47.40
2022-09-01T10:10:57.702Z,47.20
2022-09-01T10:13:33.081Z,46.90
2022-09-01T10:16:32.069Z,46.60
2022-09-01T10:19:01.853Z,46.10
2022-09-01T10:21:38.834Z,45.60
2022-09-01T10:24:31.916Z,45.10
2022-09-01T10:27:22.300Z,44.90
2022-09-01T10:30:14.227Z,44.40
2022-09-01T10:32:55.701Z,44.20
2022-09-01T10:35:32.812Z,43.70
2022-09-01T10:38:11.057Z,43.10
2022-09-01T10:40:50.896Z,42.90
2022-09-01T10:43:35.965Z,42.50
2022-09-01T10:46:26.393Z,42.50
2022-09-01T10:49:02.893Z,43.00
2022-09-01T10:51:51.767Z,43.50
2022-09-01T10:54:51.110Z,43.90
2022-09-01T11:00:40.016Z,43.90
2022-09-01T11:06:12.613Z,44.00
2022-09-01T11:08:57.300Z,43.80
2022-09-01T11:11:36.773Z,44.00
2022-09-01T11:14:22.823Z,44.10
2022-09-01T11:17:27.772Z,44.30
2022-09-01T11:19:58.188Z,44.30
2022-09-01T11:22:36.237Z,44.10
2022-09-01T11:25:39.521Z,44.00
2022-09-01T11:28:08.837Z,43.50
2022-09-01T11:30:55.179Z,42.40
2022-09-01T11:33:53.452Z,40.90
2022-09-01T11:36:30.830Z,40.30
2022-09-01T11:39:20.902Z,39.80
2022-09-01T11:41:55.861Z,39.50
2022-09-01T11:44:36.127Z,39.20
2022-09-01T11:47:09.503Z,39.00
2022-09-01T11:49:53.089Z,39.00
2022-09-01T11:52:37.936Z,38.90
2022-09-01T11:55:49.077Z,38.90
2022-09-01T11:58:39.443Z,38.80
2022-09-01T12:01:20.614Z,38.50
2022-09-01T12:03:50.184Z,38.50
2022-09-01T12:06:25.161Z,38.30
2022-09-01T12:09:05.810Z,38.20
2022-09-01T12:11:35.626Z,38.20
2022-09-01T12:14:06.622Z,38.90
2022-09-01T12:16:42.292Z,39.60
2022-09-01T12:19:24.381Z,40.20
2022-09-01T12:22:19.869Z,40.40
2022-09-01T12:24:53.216Z,40.80
2022-09-01T12:27:23.302Z,41.10
2022-09-01T12:29:51.484Z,41.30
2022-09-01T12:32:19.825Z,41.40
2022-09-01T12:35:09.222Z,41.50
2022-09-01T12:37:38.583Z,41.60
2022-09-01T12:40:05.907Z,41.80
2022-09-01T12:42:41.371Z,41.70
2022-09-01T12:45:13.327Z,41.70
2022-09-01T12:47:50.306Z,41.80
2022-09-01T12:50:17.625Z,41.60
2022-09-01T12:53:13.831Z,41.60
2022-09-01T12:55:48.097Z,41.40
2022-09-01T12:58:25.122Z,41.50
2022-09-01T13:00:58.552Z,41.20
2022-09-01T13:03:27.849Z,40.90
2022-09-01T13:05:58.535Z,40.90
2022-09-01T13:08:33.070Z,40.80
2022-09-01T13:11:11.347Z,40.60
2022-09-01T13:13:38.605Z,40.60
2022-09-01T13:16:13.177Z,40.70
2022-09-01T13:21:31.149Z,40.80
2022-09-01T13:23:58.128Z,40.80
2022-09-01T13:26:26.391Z,40.90
2022-09-01T13:28:54.137Z,40.80
2022-09-01T13:31:29.186Z,40.80
2022-09-01T13:34:23.481Z,40.70
2022-09-01T13:36:50.782Z,40.70
2022-09-01T13:39:22.717Z,40.60
2022-09-01T13:41:50.163Z,40.50
2022-09-01T13:44:18.699Z,40.50
2022-09-01T13:47:28.548Z,40.40
2022-09-01T13:52:21.770Z,40.50
2022-09-01T13:54:48.690Z,40.60
2022-09-01T13:57:16.713Z,40.60
2022-09-01T13:59:44.500Z,40.50
2022-09-01T14:02:11.537Z,40.40
2022-09-01T14:04:38.694Z,40.30
2022-09-01T14:07:06.117Z,40.30
2022-09-01T14:09:33.459Z,40.30
2022-09-01T14:12:00.339Z,40.30
2022-09-01T14:15:09.788Z,40.30
2022-09-01T14:17:14.287Z,40.30
2022-09-01T14:19:42.174Z,40.30
2022-09-01T14:22:09.134Z,40.30
2022-09-01T14:24:38.832Z,40.20
2022-09-01T14:27:07.930Z,40.10
2022-09-01T14:29:36.412Z,40.10
2022-09-01T14:32:04.195Z,40.10
2022-09-01T14:34:31.179Z,40.10
2022-09-01T14:36:58.114Z,40.00
2022-09-01T14:39:25.364Z,40.00
2022-09-01T14:41:52.425Z,39.90
2022-09-01T14:44:19.446Z,39.90
2022-09-01T14:46:47.281Z,39.90
2022-09-01T14:49:21.650Z,39.90
2022-09-01T14:54:39.591Z,39.80
2022-09-01T14:59:54.433Z,39.90
2022-09-01T15:02:22.002Z,39.90
2022-09-01T15:04:52.319Z,40.00
2022-09-01T15:07:19.565Z,39.90
2022-09-01T15:09:46.568Z,39.90
2022-09-01T15:12:13.565Z,40.00
2022-09-01T15:14:40.566Z,40.00
2022-09-01T15:17:07.819Z,40.00
2022-09-01T15:19:35.077Z,40.00
2022-09-01T15:22:02.380Z,40.00
2022-09-01T15:24:29.342Z,40.10
2022-09-01T15:26:56.256Z,40.20
2022-09-01T15:29:23.261Z,40.20
2022-09-01T15:31:50.388Z,40.00
2022-09-01T15:34:18.984Z,40.70
2022-09-01T15:36:46.242Z,40.20
2022-09-01T15:39:13.226Z,40.00
2022-09-01T15:41:40.473Z,40.00
2022-09-01T15:44:08.645Z,40.00
2022-09-01T15:46:38.864Z,39.90
2022-09-01T15:49:09.672Z,40.50
2022-09-01T15:51:43.978Z,39.80
2022-09-01T15:54:14.552Z,39.70
2022-09-01T15:56:42.931Z,39.80
2022-09-01T15:59:10.940Z,39.60
2022-09-01T16:01:41.183Z,39.50
2022-09-01T16:04:14.654Z,39.10
2022-09-01T16:06:44.541Z,37.80
2022-09-01T16:09:13.097Z,36.60
2022-09-01T16:11:41.375Z,35.70
2022-09-01T16:14:08.439Z,34.80
2022-09-01T16:16:44.354Z,34.30
2022-09-01T16:19:36.439Z,33.70
2022-09-01T16:22:23.230Z,33.50
2022-09-01T16:24:54.036Z,33.40
2022-09-01T16:27:24.577Z,33.20
2022-09-01T16:29:55.212Z,33.00
2022-09-01T16:32:23.404Z,32.70
2022-09-01T16:34:53.857Z,32.40
2022-09-01T16:37:33.009Z,32.10
2022-09-01T16:40:33.839Z,32.90
2022-09-01T16:43:24.784Z,32.10
2022-09-01T16:46:07.449Z,32.30
2022-09-01T16:48:37.950Z,33.00
2022-09-01T16:51:22.169Z,33.80
2022-09-01T16:54:03.885Z,34.50
2022-09-01T16:56:32.438Z,34.80
2022-09-01T16:59:27.002Z,35.50
2022-09-01T17:02:19.977Z,35.70
2022-09-01T17:04:49.826Z,36.00
2022-09-01T17:07:32.147Z,36.40
2022-09-01T17:10:02.889Z,36.40
2022-09-01T17:12:53.221Z,36.50
2022-09-01T17:15:29.166Z,36.60
2022-09-01T17:18:05.978Z,36.80
2022-09-01T17:20:35.484Z,36.90
2022-09-01T17:23:08.777Z,37.00
2022-09-01T17:25:50.457Z,37.00
2022-09-01T17:28:26.517Z,37.20
2022-09-01T17:31:05.904Z,37.40
2022-09-01T17:34:06.378Z,37.50
2022-09-01T17:37:09.082Z,37.70
2022-09-01T17:40:05.867Z,37.80
2022-09-01T17:42:55.249Z,37.90
2022-09-01T17:46:03.642Z,38.10
2022-09-01T17:48:46.731Z,38.30
2022-09-01T17:51:25.422Z,38.40
2022-09-01T17:53:55.314Z,38.50
2022-09-01T17:56:35.248Z,38.70
2022-09-01T17:59:17.902Z,38.80
2022-09-01T18:01:59.573Z,38.90
2022-09-01T18:04:47.727Z,39.10
2022-09-01T18:07:31.706Z,39.20
2022-09-01T18:10:02.658Z,39.30
2022-09-01T18:12:35.945Z,39.50
2022-09-01T18:15:13.376Z,39.60
2022-09-01T18:17:55.069Z,39.70
2022-09-01T18:20:38.473Z,39.80
2022-09-01T18:23:09.589Z,40.00
2022-09-01T18:25:39.776Z,40.10
2022-09-01T18:28:07.734Z,40.30
2022-09-01T18:30:55.205Z,40.40
2022-09-01T18:33:37.103Z,40.50
2022-09-01T18:36:39.329Z,40.60
2022-09-01T18:39:39.502Z,40.80
2022-09-01T18:42:33.177Z,40.90
2022-09-01T18:45:17.026Z,41.10
2022-09-01T18:48:13.911Z,41.20
2022-09-01T18:50:45.629Z,41.30
2022-09-01T18:53:43.840Z,41.30
2022-09-01T18:56:37.828Z,41.40
2022-09-01T18:59:05.139Z,41.50
2022-09-01T19:01:35.231Z,41.60
2022-09-01T19:04:36.378Z,41.70
2022-09-01T19:07:20.331Z,41.80
2022-09-01T19:10:18.626Z,41.90
2022-09-01T19:12:58.416Z,41.90
2022-09-01T19:15:38.248Z,42.00
2022-09-01T19:18:13.397Z,42.10
2022-09-01T19:20:57.036Z,42.30
2022-09-01T19:23:35.992Z,42.40
2022-09-01T19:26:09.426Z,42.50
2022-09-01T19:28:49.341Z,42.60
2022-09-01T19:31:31.096Z,42.60
2022-09-01T19:34:05.265Z,42.60
2022-09-01T19:36:55.130Z,42.70
2022-09-01T19:39:29.288Z,42.80
2022-09-01T19:42:50.981Z,42.90
2022-09-01T19:45:22.449Z,43.00
2022-09-01T19:48:14.994Z,43.10
2022-09-01T19:50:51.684Z,43.10
2022-09-01T19:53:21.395Z,43.20
2022-09-01T19:55:53.216Z,43.50
2022-09-01T19:58:25.284Z,43.40
2022-09-01T20:00:56.055Z,43.50
2022-09-01T20:03:36.986Z,43.60
2022-09-01T20:06:11.553Z,43.50
2022-09-01T20:09:01.542Z,43.70
2022-09-01T20:11:37.472Z,43.70
2022-09-01T20:14:32.468Z,43.80
2022-09-01T20:17:08.590Z,43.90
2022-09-01T20:19:49.059Z,44.00
2022-09-01T20:22:41.393Z,44.10
2022-09-01T20:25:15.620Z,44.10
2022-09-01T20:27:45.357Z,44.30
2022-09-01T20:30:20.027Z,44.30
2022-09-01T20:33:01.187Z,44.40
2022-09-01T20:35:52.599Z,44.40
2022-09-01T20:39:27.209Z,44.40
2022-09-01T20:42:12.963Z,44.60
2022-09-01T20:44:43.325Z,44.70
2022-09-01T20:47:11.921Z,44.80
2022-09-01T20:49:39.386Z,44.80
2022-09-01T20:52:09.059Z,44.80
2022-09-01T20:54:57.132Z,44.90
2022-09-01T20:57:39.824Z,44.90
2022-09-01T21:00:22.594Z,45.00
2022-09-01T21:02:55.633Z,45.00
2022-09-01T21:05:54.505Z,45.00
2022-09-01T21:08:42.457Z,45.10
2022-09-01T21:11:28.333Z,45.10
2022-09-01T21:14:16.029Z,45.10
2022-09-01T21:16:57.715Z,45.20
2022-09-01T21:19:33.428Z,45.10
2022-09-01T21:22:11.238Z,45.20
2022-09-01T21:24:39.580Z,45.20
2022-09-01T21:27:12.678Z,45.30
2022-09-01T21:29:58.566Z,45.30
2022-09-01T21:32:29.213Z,45.30
2022-09-01T21:34:57.052Z,45.40
2022-09-01T21:37:25.629Z,45.40
2022-09-01T21:39:54.205Z,45.50
2022-09-01T21:42:41.395Z,45.50
2022-09-01T21:45:12.109Z,45.50
2022-09-01T21:47:41.004Z,45.60
2022-09-01T21:50:08.861Z,45.60
2022-09-01T21:52:35.944Z,45.60
2022-09-01T21:55:03.133Z,45.60
2022-09-01T21:57:30.089Z,45.60
2022-09-01T21:59:56.987Z,45.70
2022-09-01T22:02:28.573Z,46.30
2022-09-01T22:04:56.292Z,45.70
2022-09-01T22:07:23.176Z,45.80
2022-09-01T22:09:50.371Z,45.80
2022-09-01T22:12:17.501Z,45.80
2022-09-01T22:14:44.735Z,45.90
2022-09-01T22:17:11.829Z,45.90
2022-09-01T22:19:38.986Z,46.00
2022-09-01T22:22:05.984Z,46.60
2022-09-01T22:24:33.259Z,46.10
2022-09-01T22:27:00.401Z,46.10
2022-09-01T22:29:27.395Z,46.20
2022-09-01T22:31:54.368Z,46.20
2022-09-01T22:34:21.293Z,46.20
2022-09-01T22:36:49.455Z,46.30
2022-09-01T22:39:22.410Z,46.30
2022-09-01T22:41:53.254Z,46.40
2022-09-01T22:44:20.686Z,46.50
2022-09-01T22:46:47.689Z,46.50
2022-09-01T22:49:14.835Z,46.50
2022-09-01T22:51:44.243Z,46.50
2022-09-01T22:54:11.701Z,46.60
2022-09-01T22:56:40.505Z,46.60
2022-09-01T22:59:12.341Z,46.60
2022-09-01T23:01:42.653Z,46.70
2022-09-01T23:04:12.667Z,46.80
2022-09-01T23:06:44.785Z,46.80
2022-09-01T23:09:12.542Z,46.80
2022-09-01T23:11:39.523Z,46.80
2022-09-01T23:14:06.635Z,46.90
2022-09-01T23:16:33.928Z,47.00
2022-09-01T23:19:01.455Z,47.00
2022-09-01T23:21:31.912Z,47.00
2022-09-01T23:24:00.010Z,47.10
2022-09-01T23:26:29.070Z,47.10
2022-09-01T23:28:56.252Z,47.20
2022-09-01T23:31:26.997Z,47.20
2022-09-01T23:33:57.451Z,47.30
2022-09-01T23:36:27.461Z,47.30
2022-09-01T23:38:54.837Z,47.40
2022-09-01T23:41:33.272Z,47.30
2022-09-01T23:44:03.544Z,47.40
2022-09-01T23:46:33.586Z,47.50
2022-09-01T23:49:02.227Z,47.60
2022-09-01T23:51:29.986Z,47.60
2022-09-01T23:53:56.956Z,47.70
2022-09-01T23:56:26.320Z,47.70
2022-09-01T23:58:53.853Z,47.80
